Time;durP1;ratioP1;P1;durP2;ratioP2;P2;SDS_P1;SDS_P2;PMS_P1;PMS_P2;Temp;Humidity;BMP_temperature;BMP_pressure;BME280_temperature;BME280_humidity;BME280_pressure;Samples;Min_cycle;Max_cycle;Signal;HPM_P1;HPM_P2
2021/09/16 00:00:15;;;;;;;18.42;13.10;;;;;;;15.98;100.00;95772.25;1026605;28;20019;-66
2021/09/16 00:00:46;;;;;;;20.88;12.82;;;;;;;15.97;100.00;95770.69;1031189;28;20015;-65
2021/09/16 00:01:16;;;;;;;16.92;12.77;;;;;;;15.97;100.00;95768.03;1030171;28;20025;-65
2021/09/16 00:01:46;;;;;;;17.65;13.15;;;;;;;15.97;100.00;95770.69;1030431;28;20030;-65
2021/09/16 00:02:17;;;;;;;15.23;12.18;;;;;;;15.97;100.00;95773.34;1034424;28;20033;-64
2021/09/16 00:02:47;;;;;;;22.33;13.68;;;;;;;15.96;100.00;95769.91;1030749;28;20083;-65
2021/09/16 00:03:18;;;;;;;19.27;13.38;;;;;;;15.94;100.00;95768.63;1030510;28;20028;-66
2021/09/16 00:03:49;;;;;;;20.42;11.77;;;;;;;15.96;100.00;95772.56;1030763;28;20015;-65
2021/09/16 00:04:19;;;;;;;17.60;12.70;;;;;;;15.96;100.00;95775.19;1030682;28;20019;-66
2021/09/16 00:04:50;;;;;;;21.13;12.77;;;;;;;15.88;100.00;95759.22;1034576;28;20029;-65
2021/09/16 00:05:20;;;;;;;16.77;12.43;;;;;;;15.90;100.00;95765.00;1033153;28;20018;-65
2021/09/16 00:05:50;;;;;;;19.55;13.00;;;;;;;15.96;100.00;95767.25;1034943;28;20029;-65
2021/09/16 00:06:21;;;;;;;18.98;13.48;;;;;;;15.95;100.00;95770.19;1029776;28;20527;-65
2021/09/16 00:06:51;;;;;;;21.27;12.80;;;;;;;15.94;100.00;95763.34;1026068;28;20022;-64
2021/09/16 00:07:22;;;;;;;19.77;13.20;;;;;;;15.95;100.00;95770.19;1030843;28;20018;-65
2021/09/16 00:07:52;;;;;;;18.65;12.95;;;;;;;15.91;100.00;95767.34;1034713;28;20018;-64
2021/09/16 00:08:23;;;;;;;18.02;12.23;;;;;;;15.92;100.00;95766.25;1036383;28;20022;-66
2021/09/16 00:08:53;;;;;;;23.65;13.88;;;;;;;15.87;100.00;95755.03;1038832;28;20029;-66
2021/09/16 00:09:24;;;;;;;20.35;12.60;;;;;;;15.89;100.00;95763.44;1034955;28;20057;-66
2021/09/16 00:09:54;;;;;;;19.58;12.10;;;;;;;15.88;100.00;95761.88;1030912;28;20076;-64
2021/09/16 00:10:25;;;;;;;17.25;11.52;;;;;;;15.90;100.00;95765.00;1024787;28;20588;-63
2021/09/16 00:10:55;;;;;;;19.20;13.55;;;;;;;15.88;100.00;95770.59;1026773;28;20019;-65
2021/09/16 00:11:26;;;;;;;19.15;12.82;;;;;;;15.89;100.00;95774.00;1030271;28;20022;-64
2021/09/16 00:11:56;;;;;;;18.42;12.30;;;;;;;15.89;100.00;95766.06;1026859;28;20039;-65
2021/09/16 00:12:27;;;;;;;19.13;13.00;;;;;;;15.86;100.00;95770.13;1034892;28;20032;-65
2021/09/16 00:12:57;;;;;;;16.77;13.18;;;;;;;15.87;100.00;95771.69;1027039;28;20015;-66
2021/09/16 00:13:27;;;;;;;21.67;14.18;;;;;;;15.87;100.00;95773.53;1029330;28;20501;-65
2021/09/16 00:13:58;;;;;;;20.73;13.95;;;;;;;15.87;100.00;95776.19;1038973;28;20515;-66
2021/09/16 00:14:28;;;;;;;18.40;12.13;;;;;;;15.87;100.00;95771.69;1033284;28;20065;-65
2021/09/16 00:14:59;;;;;;;19.00;12.80;;;;;;;15.81;100.00;95764.13;1034874;28;20018;-65
2021/09/16 00:15:29;;;;;;;18.23;13.82;;;;;;;15.86;100.00;95775.41;1030997;28;20077;-65
2021/09/16 00:16:00;;;;;;;17.17;13.35;;;;;;;15.85;100.00;95773.81;1030923;28;20112;-65
2021/09/16 00:16:30;;;;;;;20.10;13.48;;;;;;;15.85;100.00;95773.03;1031111;28;20073;-65
2021/09/16 00:17:01;;;;;;;17.80;13.10;;;;;;;15.85;100.00;95778.34;1031594;28;20017;-65
2021/09/16 00:17:31;;;;;;;18.55;13.25;;;;;;;15.87;100.00;95778.84;1030542;28;20885;-65
2021/09/16 00:18:01;;;;;;;16.08;13.52;;;;;;;15.85;100.00;95781.75;1026730;28;20050;-65
2021/09/16 00:18:32;;;;;;;17.52;13.73;;;;;;;15.85;100.00;95775.69;1031119;28;20038;-66
2021/09/16 00:19:02;;;;;;;19.88;12.95;;;;;;;15.86;100.00;95777.25;1026526;28;20031;-65
2021/09/16 00:19:33;;;;;;;20.83;13.45;;;;;;;15.85;100.00;95775.69;1031060;28;20022;-65
2021/09/16 00:20:04;;;;;;;17.75;13.27;;;;;;;15.85;100.00;95780.97;1027007;28;20094;-65
2021/09/16 00:20:34;;;;;;;18.63;12.40;;;;;;;15.87;100.00;95781.47;1027469;28;20030;-64
2021/09/16 00:21:05;;;;;;;17.58;12.43;;;;;;;15.87;100.00;95778.84;1030417;28;20116;-65
2021/09/16 00:21:35;;;;;;;17.65;12.05;;;;;;;15.81;100.00;95766.78;1030432;28;20026;-64
2021/09/16 00:22:08;;;;;;;18.77;12.00;;;;;;;15.85;100.00;95770.41;1035149;28;20073;-65
2021/09/16 00:22:39;;;;;;;18.95;13.57;;;;;;;15.88;100.00;95775.09;1039064;28;20033;-65
2021/09/16 00:23:09;;;;;;;21.85;14.57;;;;;;;15.82;100.00;95763.03;1039031;28;20146;-65
2021/09/16 00:23:40;;;;;;;17.83;12.15;;;;;;;15.85;100.00;95771.19;1027657;28;20026;-65
2021/09/16 00:24:10;;;;;;;17.85;13.30;;;;;;;15.88;100.00;95775.09;1031248;28;20026;-65
2021/09/16 00:24:41;;;;;;;21.50;13.27;;;;;;;15.87;100.00;95773.53;1027243;28;20023;-65
2021/09/16 00:25:11;;;;;;;19.13;12.20;;;;;;;15.87;100.00;95771.69;1023079;28;20559;-65
2021/09/16 00:25:42;;;;;;;16.98;13.07;;;;;;;15.84;100.00;95763.53;1026800;28;20500;-65
2021/09/16 00:26:12;;;;;;;19.30;13.98;;;;;;;15.88;100.00;95769.81;1027171;28;20030;-65
2021/09/16 00:26:42;;;;;;;17.85;12.48;;;;;;;15.87;100.00;95774.31;1030981;28;20373;-65
2021/09/16 00:27:13;;;;;;;17.10;12.77;;;;;;;15.88;100.00;95775.88;1035821;28;20041;-65
2021/09/16 00:27:43;;;;;;;17.65;12.23;;;;;;;15.89;100.00;95776.66;1035163;28;20064;-65
2021/09/16 00:28:14;;;;;;;21.20;13.65;;;;;;;15.89;100.00;95776.66;1034892;28;20044;-64
2021/09/16 00:28:44;;;;;;;18.85;12.88;;;;;;;15.89;100.00;95779.31;1035027;28;20118;-65
2021/09/16 00:29:15;;;;;;;19.60;11.38;;;;;;;15.88;100.00;95775.09;1030673;28;20037;-64
2021/09/16 00:29:45;;;;;;;18.33;12.15;;;;;;;15.89;100.00;95779.31;1035172;28;20025;-65
2021/09/16 00:30:16;;;;;;;21.50;14.35;;;;;;;15.89;100.00;95776.66;1034877;28;20034;-65
2021/09/16 00:30:46;;;;;;;17.48;12.13;;;;;;;15.90;100.00;95778.25;1030423;28;20054;-65
2021/09/16 00:31:17;;;;;;;14.85;12.25;;;;;;;15.90;100.00;95779.03;1030030;28;20038;-65
2021/09/16 00:31:47;;;;;;;16.88;12.98;;;;;;;15.89;100.00;95771.38;1030894;28;20519;-64
2021/09/16 00:32:17;;;;;;;19.98;12.70;;;;;;;15.89;100.00;95772.16;1033638;28;20037;-66
2021/09/16 00:32:48;;;;;;;18.27;12.43;;;;;;;15.89;100.00;95766.06;1035125;28;20035;-65
2021/09/16 00:33:18;;;;;;;23.58;14.32;;;;;;;15.88;100.00;95764.50;1035284;28;20049;-65
2021/09/16 00:33:49;;;;;;;16.55;11.75;;;;;;;15.91;100.00;95769.22;1030666;28;20034;-65
2021/09/16 00:34:19;;;;;;;20.35;13.15;;;;;;;15.92;100.00;95771.56;1034285;28;20038;-65
2021/09/16 00:34:50;;;;;;;17.75;13.23;;;;;;;15.92;100.00;95771.56;1031083;28;20054;-66
2021/09/16 00:35:20;;;;;;;19.63;12.30;;;;;;;15.84;100.00;95756.38;1030952;28;20081;-65
2021/09/16 00:35:51;;;;;;;21.92;13.52;;;;;;;15.91;100.00;95769.22;1026169;28;20037;-65
2021/09/16 00:36:21;;;;;;;18.80;14.18;;;;;;;15.89;100.00;95771.38;1026987;28;20027;-65
2021/09/16 00:36:51;;;;;;;16.63;12.18;;;;;;;15.90;100.00;95767.66;1031073;28;20026;-66
2021/09/16 00:37:22;;;;;;;21.17;13.05;;;;;;;15.90;100.00;95768.44;1030378;28;20026;-65
2021/09/16 00:37:52;;;;;;;19.02;14.23;;;;;;;15.91;100.00;95766.56;1030889;28;20042;-65
2021/09/16 00:38:23;;;;;;;21.10;13.82;;;;;;;15.91;100.00;95769.22;1031039;28;20772;-65
2021/09/16 00:38:54;;;;;;;19.42;13.30;;;;;;;15.90;100.00;95762.38;1034883;28;20075;-65
2021/09/16 00:39:24;;;;;;;19.50;13.50;;;;;;;15.90;100.00;95765.00;1030309;28;20046;-65
2021/09/16 00:39:55;;;;;;;17.55;12.18;;;;;;;15.91;100.00;95763.94;1026751;28;20031;-65
2021/09/16 00:40:25;;;;;;;19.33;12.32;;;;;;;15.89;100.00;95758.13;1027225;28;20046;-65
2021/09/16 00:40:56;;;;;;;21.80;13.85;;;;;;;15.91;100.00;95763.94;1025466;28;20019;-64
2021/09/16 00:41:28;;;;;;;21.35;13.10;;;;;;;15.87;100.00;95755.03;1029961;28;20026;-64
2021/09/16 00:41:59;;;;;;;15.00;12.07;;;;;;;15.91;100.00;95762.06;1031225;28;20109;-67
2021/09/16 00:42:29;;;;;;;15.77;11.52;;;;;;;15.91;100.00;95763.94;1030765;28;20029;-65
2021/09/16 00:42:59;;;;;;;20.10;13.10;;;;;;;15.89;100.00;95758.13;1027083;28;20088;-66
2021/09/16 00:43:31;;;;;;;16.42;12.48;;;;;;;15.91;100.00;95764.72;1031391;28;20057;-65
2021/09/16 00:44:01;;;;;;;16.85;12.05;;;;;;;15.90;100.00;95762.38;1030845;28;20069;-65
2021/09/16 00:44:32;;;;;;;16.95;12.07;;;;;;;15.90;100.00;95759.72;1030964;28;20632;-65
2021/09/16 00:45:03;;;;;;;16.73;12.35;;;;;;;15.90;100.00;95762.38;1027057;28;20037;-65
2021/09/16 00:45:33;;;;;;;20.92;12.90;;;;;;;15.89;100.00;95760.78;1027169;28;20031;-63
2021/09/16 00:46:04;;;;;;;25.02;12.73;;;;;;;15.84;100.00;95758.25;1030526;28;20045;-65
2021/09/16 00:46:34;;;;;;;20.88;13.45;;;;;;;15.85;100.00;95757.94;1031103;28;20495;-64
2021/09/16 00:47:05;;;;;;;24.00;13.75;;;;;;;15.88;100.00;95759.22;1027072;28;20120;-66
2021/09/16 00:47:36;;;;;;;15.25;12.10;;;;;;;15.89;100.00;95761.56;1027416;28;20081;-65
2021/09/16 00:48:06;;;;;;;17.73;11.73;;;;;;;15.90;100.00;95768.44;1030959;28;20034;-65
2021/09/16 00:48:36;;;;;;;16.70;12.63;;;;;;;15.88;100.00;95759.22;1027119;28;20037;-65
2021/09/16 00:49:07;;;;;;;19.88;11.95;;;;;;;15.90;100.00;95757.06;1026845;28;20454;-65
2021/09/16 00:49:38;;;;;;;17.67;12.00;;;;;;;15.86;100.00;95753.44;1033140;28;20523;-65
2021/09/16 00:50:08;;;;;;;20.35;11.23;;;;;;;15.90;100.00;95759.72;1030860;28;20038;-65
2021/09/16 00:50:39;;;;;;;18.85;11.30;;;;;;;15.89;100.00;95755.50;1026865;28;20046;-66
2021/09/16 00:51:09;;;;;;;20.05;12.02;;;;;;;15.86;100.00;95754.25;1026388;28;20128;-62
2021/09/16 00:51:40;;;;;;;15.48;11.98;;;;;;;15.87;100.00;95758.44;1023000;28;20107;-66
2021/09/16 00:52:11;;;;;;;16.20;11.43;;;;;;;15.88;100.00;95759.22;1026879;28;20030;-65
2021/09/16 00:52:42;;;;;;;17.65;12.60;;;;;;;15.86;100.00;95750.78;1026126;28;20045;-65
2021/09/16 00:53:12;;;;;;;15.57;11.55;;;;;;;15.86;100.00;95753.44;1019315;29;20466;-65
2021/09/16 00:53:42;;;;;;;19.35;12.07;;;;;;;15.81;100.00;95740.31;1026714;28;20401;-65
2021/09/16 00:54:13;;;;;;;15.00;10.80;;;;;;;15.85;100.00;95754.50;1022883;29;20027;-66
2021/09/16 00:54:45;;;;;;;20.75;12.13;;;;;;;15.83;100.00;95756.66;1030061;28;20078;-66
2021/09/16 00:55:16;;;;;;;16.92;11.57;;;;;;;15.85;100.00;95759.81;1022947;28;20525;-65
2021/09/16 00:55:46;;;;;;;14.98;11.63;;;;;;;15.83;100.00;95756.66;1026927;28;20034;-65
2021/09/16 00:56:16;;;;;;;22.40;13.38;;;;;;;15.75;100.00;95751.00;1026774;28;20027;-66
2021/09/16 00:56:47;;;;;;;17.33;10.65;;;;;;;15.82;100.00;95760.41;1026992;28;20078;-65
2021/09/16 00:57:18;;;;;;;16.58;11.80;;;;;;;15.74;100.00;95754.72;1023200;28;20059;-65
2021/09/16 00:57:51;;;;;;;16.10;12.85;;;;;;;15.79;100.00;95761.75;1022978;28;20102;-65
2021/09/16 00:58:21;;;;;;;19.90;12.75;;;;;;;15.78;100.00;95760.97;1027074;28;20102;-66
2021/09/16 00:58:52;;;;;;;19.23;12.88;;;;;;;15.74;100.00;95753.94;1022246;29;20031;-66
2021/09/16 00:59:23;;;;;;;19.98;12.63;;;;;;;15.75;100.00;95758.94;1023376;28;20106;-65
2021/09/16 00:59:53;;;;;;;18.65;13.07;;;;;;;15.75;100.00;95764.22;1022359;29;20022;-66
2021/09/16 01:00:23;;;;;;;15.73;12.18;;;;;;;15.76;100.00;95762.34;1022941;29;20517;-66
2021/09/16 01:00:57;;;;;;;20.23;12.98;;;;;;;15.74;100.00;95762.66;1023021;28;20019;-64
2021/09/16 01:01:29;;;;;;;22.42;12.95;;;;;;;15.73;100.00;95765.63;1020527;28;20031;-65
2021/09/16 01:02:00;;;;;;;19.83;12.77;;;;;;;15.66;100.00;95758.06;1027318;28;20086;-66
2021/09/16 01:02:31;;;;;;;17.35;13.00;;;;;;;15.70;100.00;95761.69;1022573;28;20101;-65
2021/09/16 01:03:01;;;;;;;15.18;12.48;;;;;;;15.71;100.00;95765.09;1025108;28;20078;-66
2021/09/16 01:03:31;;;;;;;24.80;13.23;;;;;;;15.67;100.00;95764.91;1034996;28;20041;-66
2021/09/16 01:04:02;;;;;;;18.05;13.02;;;;;;;15.69;100.00;95769.91;1026944;28;20027;-65
2021/09/16 01:04:32;;;;;;;20.52;13.60;;;;;;;15.67;100.00;95770.22;1035058;28;20022;-66
2021/09/16 01:05:03;;;;;;;21.40;13.40;;;;;;;15.65;100.00;95759.09;1034512;28;20033;-65
2021/09/16 01:05:34;;;;;;;19.73;13.75;;;;;;;15.67;100.00;95762.28;1035023;28;20006;-64
2021/09/16 01:06:06;;;;;;;18.80;13.77;;;;;;;15.65;100.00;95756.44;1034691;28;20013;-66
2021/09/16 01:06:36;;;;;;;19.73;14.43;;;;;;;15.64;100.00;95759.41;1034498;28;20034;-64
2021/09/16 01:07:11;;;;;;;19.27;13.50;;;;;;;15.62;100.00;95761.53;1034622;28;20017;-64
2021/09/16 01:07:41;;;;;;;20.60;13.40;;;;;;;15.55;100.00;95746.06;1032500;28;20084;-65
2021/09/16 01:08:12;;;;;;;23.10;14.65;;;;;;;15.60;100.00;95748.63;1030666;28;20010;-65
2021/09/16 01:08:42;;;;;;;24.00;15.82;;;;;;;15.60;100.00;95759.22;1030865;28;20019;-66
2021/09/16 01:09:13;;;;;;;20.88;15.30;;;;;;;15.54;100.00;95747.16;1033536;28;20022;-65
2021/09/16 01:09:43;;;;;;;18.85;13.77;;;;;;;15.59;100.00;95760.25;1027081;28;20023;-65
2021/09/16 01:10:14;;;;;;;21.08;13.32;;;;;;;15.59;100.00;95762.91;1034564;28;20018;-64
2021/09/16 01:10:44;;;;;;;18.33;13.98;;;;;;;15.59;100.00;95756.84;1030996;28;20018;-66
2021/09/16 01:11:14;;;;;;;27.77;13.93;;;;;;;15.52;100.00;95752.72;1034249;28;20053;-65
2021/09/16 01:11:45;;;;;;;22.77;14.35;;;;;;;15.57;100.00;95762.44;1027886;28;20026;-65
2021/09/16 01:12:15;;;;;;;22.67;15.55;;;;;;;15.55;100.00;95767.22;1030899;28;20025;-66
2021/09/16 01:12:46;;;;;;;29.63;15.65;;;;;;;15.55;100.00;95767.22;1031011;28;20399;-66
2021/09/16 01:13:17;;;;;;;23.13;15.77;;;;;;;15.53;100.00;95762.25;1026889;28;20444;-65
2021/09/16 01:13:47;;;;;;;23.75;14.25;;;;;;;15.53;100.00;95762.25;1030947;28;20052;-65
2021/09/16 01:14:24;;;;;;;25.52;15.77;;;;;;;15.52;100.00;95765.94;1026872;28;20025;-65
2021/09/16 01:14:54;;;;;;;22.70;15.60;;;;;;;15.51;100.00;95763.59;1027703;28;20113;-65
2021/09/16 01:15:25;;;;;;;22.05;14.73;;;;;;;15.50;100.00;95764.69;1031852;28;20508;-65
2021/09/16 01:15:56;;;;;;;21.90;15.45;;;;;;;15.51;100.00;95760.97;1031673;28;20531;-65
2021/09/16 01:16:27;;;;;;;19.83;14.55;;;;;;;15.49;100.00;95769.19;1031283;28;20508;-65
2021/09/16 01:17:00;;;;;;;23.65;16.08;;;;;;;15.50;100.00;95759.41;1031385;28;20018;-66
2021/09/16 01:17:30;;;;;;;18.92;13.93;;;;;;;15.47;100.00;95757.34;1027414;28;20030;-66
2021/09/16 01:18:01;;;;;;;25.17;15.30;;;;;;;15.50;100.00;95768.13;1027272;28;20122;-66
2021/09/16 01:18:31;;;;;;;22.15;14.25;;;;;;;15.49;100.00;95774.47;1032832;28;20049;-66
2021/09/16 01:19:02;;;;;;;23.45;15.23;;;;;;;15.50;100.00;95777.91;1026724;28;20496;-65
2021/09/16 01:19:33;;;;;;;23.80;15.48;;;;;;;15.48;100.00;95772.91;1030986;28;21102;-66
2021/09/16 01:20:04;;;;;;;27.15;15.77;;;;;;;15.43;100.00;95765.06;1030411;28;20019;-66
2021/09/16 01:20:35;;;;;;;21.73;15.07;;;;;;;15.46;100.00;95769.78;1027188;28;20026;-64
2021/09/16 01:21:06;;;;;;;21.20;14.73;;;;;;;15.48;100.00;95769.47;1022873;29;20457;-66
2021/09/16 01:21:36;;;;;;;21.60;15.68;;;;;;;15.49;100.00;95773.69;1022418;28;20034;-66
2021/09/16 01:22:07;;;;;;;23.77;15.18;;;;;;;15.49;100.00;95773.69;1026921;28;20031;-65
2021/09/16 01:22:38;;;;;;;21.30;14.20;;;;;;;15.51;100.00;95777.59;1027369;28;20030;-66
2021/09/16 01:23:08;;;;;;;20.38;13.07;;;;;;;15.51;100.00;95777.59;1034858;28;20128;-63
2021/09/16 01:23:39;;;;;;;20.30;13.95;;;;;;;15.49;100.00;95766.56;1026851;28;20038;-65
2021/09/16 01:24:10;;;;;;;20.75;13.23;;;;;;;15.51;100.00;95769.66;1026604;28;20049;-65
2021/09/16 01:24:40;;;;;;;20.13;13.13;;;;;;;15.54;100.00;95770.94;1030768;28;20661;-65
2021/09/16 01:25:11;;;;;;;17.83;12.82;;;;;;;15.56;100.00;95776.75;1031384;28;20033;-66
2021/09/16 01:25:41;;;;;;;18.65;14.27;;;;;;;15.58;100.00;95774.56;1030369;28;20037;-66
2021/09/16 01:26:12;;;;;;;18.88;13.82;;;;;;;15.58;100.00;95779.88;1031531;28;20027;-65
2021/09/16 01:26:42;;;;;;;18.83;12.98;;;;;;;15.58;100.00;95777.22;1034885;28;20033;-65
2021/09/16 01:27:13;;;;;;;20.88;13.30;;;;;;;15.59;100.00;95773.50;1031122;28;20028;-65
2021/09/16 01:27:44;;;;;;;18.17;13.05;;;;;;;15.59;100.00;95773.50;1029862;28;20026;-65
2021/09/16 01:28:15;;;;;;;19.10;12.68;;;;;;;15.60;100.00;95769.78;1027089;28;20019;-65
2021/09/16 01:28:45;;;;;;;18.92;14.10;;;;;;;15.60;100.00;95763.72;1030992;28;20515;-65
2021/09/16 01:29:16;;;;;;;16.50;12.60;;;;;;;15.61;100.00;95774.00;1034241;28;20403;-66
2021/09/16 01:29:46;;;;;;;17.83;12.82;;;;;;;15.62;100.00;95775.56;1026698;28;20473;-65
2021/09/16 01:30:17;;;;;;;19.40;13.52;;;;;;;15.62;100.00;95770.25;1027258;28;20486;-65
2021/09/16 01:30:47;;;;;;;21.58;13.80;;;;;;;15.60;100.00;95769.78;1026764;28;20662;-64
2021/09/16 01:31:41;;;;;;;21.65;13.23;;;;;;;15.62;100.00;95770.25;1026310;28;20038;-64
2021/09/16 01:32:12;;;;;;;20.15;13.38;;;;;;;15.63;100.00;95774.50;1033919;28;20517;-66
2021/09/16 01:32:42;;;;;;;22.25;13.25;;;;;;;15.64;100.00;95767.34;1037617;28;20021;-66
2021/09/16 01:33:13;;;;;;;17.88;13.75;;;;;;;15.63;100.00;95763.13;1038325;28;20030;-65
2021/09/16 01:33:43;;;;;;;18.98;12.32;;;;;;;15.64;100.00;95776.06;1039100;28;20410;-66
2021/09/16 01:34:14;;;;;;;20.52;14.02;;;;;;;15.64;100.00;95770.75;1035085;28;20030;-63
2021/09/16 01:34:45;;;;;;;25.65;14.45;;;;;;;15.65;100.00;95776.84;1032437;28;20038;-66
2021/09/16 01:35:15;;;;;;;20.20;13.85;;;;;;;15.59;100.00;95762.91;1030717;28;20030;-65
2021/09/16 01:35:46;;;;;;;15.65;12.07;;;;;;;15.66;100.00;95773.09;1023172;28;20107;-66
2021/09/16 01:36:16;;;;;;;18.00;11.80;;;;;;;15.66;100.00;95773.09;1026713;28;20031;-65
2021/09/16 01:36:47;;;;;;;18.48;12.82;;;;;;;15.65;100.00;95774.97;1030913;28;20038;-64
2021/09/16 01:37:18;;;;;;;19.25;13.35;;;;;;;15.65;100.00;95772.31;1031285;28;20116;-66
2021/09/16 01:37:48;;;;;;;18.83;12.85;;;;;;;15.66;100.00;95767.81;1034566;28;20065;-65
2021/09/16 01:38:19;;;;;;;18.92;14.18;;;;;;;15.64;100.00;95765.47;1034570;28;20026;-65
2021/09/16 01:38:49;;;;;;;20.20;13.20;;;;;;;15.61;100.00;95758.13;1027029;28;20030;-66
2021/09/16 01:39:20;;;;;;;19.70;13.07;;;;;;;15.65;100.00;95766.25;1026150;28;20085;-66
2021/09/16 01:39:50;;;;;;;21.65;12.75;;;;;;;15.66;100.00;95763.34;1026515;28;20121;-66
2021/09/16 01:40:20;;;;;;;14.75;12.23;;;;;;;15.65;100.00;95767.03;1026818;28;20036;-65
2021/09/16 01:40:52;;;;;;;16.17;11.98;;;;;;;15.65;100.00;95761.75;1030850;28;20026;-65
2021/09/16 01:41:22;;;;;;;17.98;12.38;;;;;;;15.62;100.00;95756.25;1034198;28;20026;-65
2021/09/16 01:41:53;;;;;;;21.70;13.45;;;;;;;15.64;100.00;95760.19;1034745;28;20033;-65
2021/09/16 01:42:23;;;;;;;16.38;12.75;;;;;;;15.65;100.00;95766.25;1030454;28;20088;-65
2021/09/16 01:42:53;;;;;;;20.25;13.45;;;;;;;15.63;100.00;95755.19;1033606;28;20036;-64
2021/09/16 01:43:24;;;;;;;20.35;13.98;;;;;;;15.63;100.00;95752.56;1026412;28;20480;-65
2021/09/16 01:43:54;;;;;;;18.75;13.98;;;;;;;15.61;100.00;95754.69;1025004;28;20042;-65
2021/09/16 01:44:25;;;;;;;17.67;13.15;;;;;;;15.56;100.00;95747.66;1027440;28;20019;-64
2021/09/16 01:44:55;;;;;;;17.60;12.35;;;;;;;15.60;100.00;95758.44;1021178;28;20023;-65
2021/09/16 01:45:26;;;;;;;19.63;13.35;;;;;;;15.60;100.00;95753.91;1026730;28;20421;-65
2021/09/16 01:45:56;;;;;;;17.67;12.82;;;;;;;15.61;100.00;95754.69;1026476;28;20019;-65
2021/09/16 01:46:28;;;;;;;16.40;13.18;;;;;;;15.59;100.00;95752.31;1029026;28;20022;-66
2021/09/16 01:46:58;;;;;;;20.48;13.80;;;;;;;15.57;100.00;95755.28;1030363;28;20029;-65
2021/09/16 01:47:28;;;;;;;19.65;13.13;;;;;;;15.57;100.00;95755.28;1030787;28;20416;-65
2021/09/16 01:47:59;;;;;;;16.23;12.45;;;;;;;15.57;100.00;95762.44;1034611;28;20876;-66
2021/09/16 01:48:29;;;;;;;22.95;13.70;;;;;;;15.53;100.00;95753.53;1030041;28;20699;-66
2021/09/16 01:49:00;;;;;;;19.08;13.55;;;;;;;15.51;100.00;95755.66;1030203;28;20524;-65
2021/09/16 01:49:31;;;;;;;19.23;13.55;;;;;;;15.55;100.00;95765.34;1026643;28;20029;-65
2021/09/16 01:50:02;;;;;;;19.40;12.85;;;;;;;15.54;100.00;95760.38;1026307;28;20027;-65
2021/09/16 01:50:32;;;;;;;18.75;13.30;;;;;;;15.54;100.00;95763.78;1026730;28;20033;-65
2021/09/16 01:51:03;;;;;;;16.63;12.70;;;;;;;15.54;100.00;95765.66;1026632;28;20098;-65
2021/09/16 01:51:33;;;;;;;19.17;12.13;;;;;;;15.54;100.00;95765.66;1028883;28;20030;-64
2021/09/16 01:52:04;;;;;;;19.80;12.93;;;;;;;15.54;100.00;95760.38;1027397;28;20109;-65
2021/09/16 01:52:34;;;;;;;17.75;13.18;;;;;;;15.53;100.00;95758.81;1026103;28;20027;-65
2021/09/16 01:53:05;;;;;;;18.42;12.43;;;;;;;15.53;100.00;95754.31;1030464;28;20530;-65
2021/09/16 01:53:35;;;;;;;18.15;12.75;;;;;;;15.54;100.00;95763.03;1026331;28;20482;-65
2021/09/16 01:54:06;;;;;;;19.63;13.15;;;;;;;15.52;100.00;95754.59;1030657;28;20023;-65
2021/09/16 01:54:37;;;;;;;18.95;13.55;;;;;;;15.53;100.00;95759.59;1030397;28;20014;-65
2021/09/16 01:55:07;;;;;;;19.67;13.68;;;;;;;15.52;100.00;95757.22;1029106;28;20253;-65
2021/09/16 01:55:38;;;;;;;15.70;12.75;;;;;;;15.51;100.00;95753.03;1030503;28;20022;-65
2021/09/16 01:56:08;;;;;;;18.77;13.05;;;;;;;15.49;100.00;95757.81;1030818;28;20026;-65
2021/09/16 01:56:39;;;;;;;21.83;14.15;;;;;;;15.51;100.00;95756.44;1034388;28;20068;-65
2021/09/16 01:57:09;;;;;;;20.05;12.20;;;;;;;15.51;100.00;95761.75;1034304;28;20021;-65
2021/09/16 01:57:40;;;;;;;17.27;12.48;;;;;;;15.53;100.00;95758.81;1034624;28;20029;-66
2021/09/16 01:58:10;;;;;;;19.50;12.98;;;;;;;15.52;100.00;95758.00;1034286;28;20026;-65
2021/09/16 01:58:41;;;;;;;18.10;13.93;;;;;;;15.51;100.00;95753.81;1032431;28;20022;-65
2021/09/16 01:59:11;;;;;;;18.38;13.07;;;;;;;15.51;100.00;95753.81;1026499;28;20030;-65
2021/09/16 01:59:41;;;;;;;19.73;13.57;;;;;;;15.50;100.00;95754.09;1026510;28;20046;-66
2021/09/16 02:00:12;;;;;;;17.58;11.95;;;;;;;15.52;100.00;95758.00;1029314;28;20042;-66
2021/09/16 02:00:43;;;;;;;20.90;12.75;;;;;;;15.52;100.00;95759.88;1035952;28;20095;-65
2021/09/16 02:01:13;;;;;;;16.35;11.93;;;;;;;15.51;100.00;95755.66;1037991;28;20044;-62
2021/09/16 02:01:44;;;;;;;22.85;13.20;;;;;;;15.45;100.00;95747.03;1034195;28;20526;-66
2021/09/16 02:02:14;;;;;;;19.65;13.18;;;;;;;15.49;100.00;95755.16;1028958;28;20740;-63
2021/09/16 02:02:44;;;;;;;18.77;12.18;;;;;;;15.50;100.00;95754.09;1026629;28;20487;-65
2021/09/16 02:03:15;;;;;;;20.67;15.32;;;;;;;15.50;100.00;95754.09;1030162;28;20491;-62
2021/09/16 02:03:46;;;;;;;18.88;13.20;;;;;;;15.46;100.00;95753.09;1030831;28;20045;-65
2021/09/16 02:04:16;;;;;;;22.95;13.13;;;;;;;15.50;100.00;95760.19;1034369;28;20029;-65
2021/09/16 02:04:47;;;;;;;19.85;12.57;;;;;;;15.50;100.00;95757.53;1030704;28;20077;-65
2021/09/16 02:05:17;;;;;;;17.08;12.90;;;;;;;15.50;100.00;95754.09;1030421;28;20037;-64
2021/09/16 02:05:47;;;;;;;18.05;13.32;;;;;;;15.50;100.00;95756.75;1034552;28;20034;-65
2021/09/16 02:06:20;;;;;;;15.70;11.75;;;;;;;15.48;100.00;95756.25;1034690;28;20638;-65
2021/09/16 02:06:50;;;;;;;19.55;12.73;;;;;;;15.48;100.00;95751.75;1038569;28;20399;-65
2021/09/16 02:07:21;;;;;;;18.30;13.18;;;;;;;15.52;100.00;95755.34;1038554;28;20033;-65
2021/09/16 02:07:51;;;;;;;23.00;14.02;;;;;;;15.51;100.00;95750.38;1035021;28;20022;-65
2021/09/16 02:08:21;;;;;;;19.23;13.02;;;;;;;15.51;100.00;95751.16;1038158;28;20018;-64
2021/09/16 02:08:52;;;;;;;17.23;12.27;;;;;;;15.47;100.00;95749.41;1026379;28;20117;-65
2021/09/16 02:09:22;;;;;;;16.85;12.52;;;;;;;15.52;100.00;95754.59;1029730;28;20535;-65
2021/09/16 02:09:53;;;;;;;22.08;13.55;;;;;;;15.53;100.00;95756.16;1030087;28;20480;-66
2021/09/16 02:10:23;;;;;;;22.85;15.05;;;;;;;15.53;100.00;95751.66;1027231;28;20080;-65
2021/09/16 02:10:54;;;;;;;16.30;12.82;;;;;;;15.52;100.00;95757.22;1026117;28;20031;-63
2021/09/16 02:11:24;;;;;;;16.98;11.82;;;;;;;15.54;100.00;95757.72;1029874;28;20034;-63
2021/09/16 02:11:55;;;;;;;20.45;12.90;;;;;;;15.46;100.00;95737.25;1035634;28;20026;-64
2021/09/16 02:12:25;;;;;;;19.20;11.73;;;;;;;15.52;100.00;95754.59;1030518;28;20503;-65
2021/09/16 02:12:55;;;;;;;15.18;12.25;;;;;;;15.54;100.00;95755.88;1026501;28;20037;-65
2021/09/16 02:13:28;;;;;;;17.63;13.10;;;;;;;15.55;100.00;95757.41;1026503;28;20046;-64
2021/09/16 02:13:58;;;;;;;16.88;12.98;;;;;;;15.56;100.00;95758.22;1027056;28;20038;-65
2021/09/16 02:14:28;;;;;;;16.20;12.63;;;;;;;15.56;100.00;95756.38;1037934;28;20032;-65
2021/09/16 02:14:59;;;;;;;21.88;13.45;;;;;;;15.56;100.00;95752.94;1038580;28;20029;-65
2021/09/16 02:15:29;;;;;;;16.05;12.48;;;;;;;15.50;100.00;95743.53;1038289;28;20462;-66
2021/09/16 02:16:00;;;;;;;16.00;12.10;;;;;;;15.55;100.00;95751.34;1030510;28;20404;-65
2021/09/16 02:16:30;;;;;;;15.70;11.02;;;;;;;15.55;100.00;95756.63;1026655;28;20081;-66
2021/09/16 02:17:01;;;;;;;21.25;13.57;;;;;;;15.55;100.00;95752.13;1025972;28;20049;-65
2021/09/16 02:17:31;;;;;;;17.05;12.55;;;;;;;15.57;100.00;95747.34;1026434;28;20034;-65
2021/09/16 02:18:02;;;;;;;16.48;11.77;;;;;;;15.56;100.00;95743.13;1034009;28;20022;-66
2021/09/16 02:18:32;;;;;;;16.33;11.75;;;;;;;15.56;100.00;95747.66;1036393;28;20026;-66
2021/09/16 02:19:04;;;;;;;18.30;13.13;;;;;;;15.57;100.00;95749.22;1034469;28;20025;-65
2021/09/16 02:19:35;;;;;;;20.33;12.73;;;;;;;15.50;100.00;95738.25;1034526;28;20014;-65